^^
Datos históricos de la estación: Murcia-Puente Tocinos
Diario Informe para Marzo 13, 2019 Unidades:  Métrico    Ingés   Ambas
Diario Semanal Mensual Anual
  Máxima: Mínima: Promedio:
Temperatura: 26.2 °C 11.1 °C 17.8 °C
Punto de rocio: 10.5 °C -2.9 °C 4.4 °C
Humedad: 76% 14.9% 47%
Velocidad viento: 20.1km/h 0km/h 8.1km/h
Racha viento: 38.9km/h - -
Viento- - SO
Presión: 1017.2 hPa 1013.6 hPa -
Precipitación: 0.0 mm    
 
 
Tabla de datos para Marzo 13, 2019
Hora Temperatura Punto de rocio Presión Viento Velocidad viento Racha viento Humedad Intensidad lluvia(por hora) Nubes
00:04 14.2 °C 10 °C 1016.0 hPa ONO 3.9 km/h 8 km/h 76% 0.0 mm
00:09 14.2 °C 10 °C 1016.0 hPa ONO 4.1 km/h 8 km/h 76% 0.0 mm
00:14 14.2 °C 10 °C 1016.0 hPa ONO 4.7 km/h 8 km/h 76% 0.0 mm
00:19 14.2 °C 10 °C 1016.2 hPa NO 4.1 km/h 8 km/h 76% 0.0 mm
00:24 14.2 °C 9.9 °C 1016.2 hPa NO 3.2 km/h 8.4 km/h 75.6% 0.0 mm
00:29 14.1 °C 9.7 °C 1016.2 hPa NO 3.4 km/h 8 km/h 75% 0.0 mm
00:34 14.1 °C 9.6 °C 1016.3 hPa ONO 3.9 km/h 4.8 km/h 74.5% 0.0 mm
00:39 14.1 °C 9.6 °C 1016.3 hPa ONO 2.5 km/h 7.4 km/h 74% 0.0 mm
00:44 14.1 °C 9.6 °C 1016.3 hPa Calm   8 km/h 74% 0.0 mm
00:49 14.1 °C 9.4 °C 1016.3 hPa ONO 1.4 km/h 8 km/h 73.1% 0.0 mm
00:54 14.1 °C 9.3 °C 1016.3 hPa ONO 3.9 km/h 7.4 km/h 73.1% 0.0 mm
00:59 14 °C 9.2 °C 1016.3 hPa ONO 3.4 km/h 8 km/h 72.6% 0.0 mm
01:04 14 °C 9 °C 1016.3 hPa ONO 2.9 km/h   71.9% 0.0 mm
01:09 14 °C 8.9 °C 1016.3 hPa ONO 1.9 km/h   71.3% 0.0 mm
01:14 14 °C 9.1 °C 1016.3 hPa Calm   2.3 km/h 72% 0.0 mm
01:19 14.1 °C 9.1 °C 1016.3 hPa Calm   3.2 km/h 71.7% 0.0 mm
01:24 14.1 °C 9 °C 1016.3 hPa Calm   5.6 km/h 71% 0.0 mm
01:29 14.2 °C 9.3 °C 1016.3 hPa SSE 0.8 km/h 7.4 km/h 72.6% 0.0 mm
01:34 14.2 °C 9.7 °C 1016.4 hPa SSE 2.2 km/h 8 km/h 74.3% 0.0 mm
01:39 14.2 °C 9.8 °C 1016.4 hPa SSE 2.2 km/h 4.8 km/h 75% 0.0 mm
01:44 14.1 °C 9.9 °C 1016.4 hPa SSE 2.2 km/h   75.9% 0.0 mm
01:49 14.1 °C 9.9 °C 1016.4 hPa SSO 1.5 km/h   76% 0.0 mm
01:54 14.1 °C 9.9 °C 1016.4 hPa Calm   7.4 km/h 76% 0.0 mm
01:59 14 °C 9.4 °C 1016.4 hPa SSO 1.4 km/h 9.5 km/h 74.2% 0.0 mm
02:04 13.9 °C 9.1 °C 1016.4 hPa SSO 3.2 km/h 9.7 km/h 73% 0.0 mm
02:09 13.8 °C 8.8 °C 1016.2 hPa SSO 3.7 km/h 9.7 km/h 72% 0.0 mm
02:14 13.8 °C 8.7 °C 1016.2 hPa SSO 4.7 km/h 10 km/h 71.2% 0.0 mm
02:19 13.8 °C 7.8 °C 1016.2 hPa SSO 4.7 km/h 11.9 km/h 67.3% 0.0 mm
02:24 13.7 °C 7 °C 1016.2 hPa SSO 4.7 km/h 11.3 km/h 63.8% 0.0 mm
02:29 13.7 °C 6.8 °C 1016.2 hPa SO 5.4 km/h 11.3 km/h 63% 0.0 mm
02:34 13.7 °C 6.6 °C 1016.2 hPa SO 6.9 km/h 9.7 km/h 62% 0.0 mm
02:39 13.7 °C 6.6 °C 1016.0 hPa SO 6.1 km/h 8.7 km/h 62% 0.0 mm
02:44 13.7 °C 6.5 °C 1016.0 hPa SSO 4.7 km/h 9.7 km/h 62% 0.0 mm
02:49 13.6 °C 6.8 °C 1016.0 hPa SO 5.1 km/h 11.1 km/h 63.5% 0.0 mm
02:54 13.6 °C 7.2 °C 1015.8 hPa SO 5.8 km/h 11.3 km/h 65.2% 0.0 mm
02:59 13.5 °C 7.7 °C 1015.8 hPa OSO 5.8 km/h 10 km/h 67.8% 0.0 mm
03:04 13.4 °C 8 °C 1015.8 hPa SO 5.8 km/h 9.7 km/h 69.6% 0.0 mm
03:09 13.3 °C 8.1 °C 1015.8 hPa SO 6 km/h 10 km/h 70.8% 0.0 mm
03:14 13.2 °C 8.3 °C 1015.8 hPa SO 6.5 km/h 13.7 km/h 71.9% 0.0 mm
03:19 13.2 °C 8.4 °C 1015.8 hPa SO 6.6 km/h 14.5 km/h 73% 0.0 mm
03:24 13.1 °C 8.4 °C 1015.7 hPa SO 6.9 km/h 13 km/h 73% 0.0 mm
03:29 13.1 °C 8.5 °C 1015.7 hPa SO 6.9 km/h 12.9 km/h 73.8% 0.0 mm
03:34 13 °C 8.5 °C 1015.7 hPa SO 6.9 km/h 13 km/h 74% 0.0 mm
03:39 13 °C 8.4 °C 1015.7 hPa SO 6.9 km/h 12.9 km/h 73.6% 0.0 mm
03:44 12.9 °C 8.2 °C 1015.7 hPa SSO 6.9 km/h 11.3 km/h 73% 0.0 mm
03:49 12.8 °C 8 °C 1015.7 hPa SSO 6.9 km/h 11.3 km/h 73% 0.0 mm
03:54 12.7 °C 8.1 °C 1015.6 hPa SSO 6.9 km/h 11.9 km/h 73.5% 0.0 mm
03:59 12.6 °C 8.1 °C 1015.6 hPa SSO 7.6 km/h 11.9 km/h 74% 0.0 mm
04:04 12.6 °C 8.1 °C 1015.6 hPa SSO 8.4 km/h 11.9 km/h 73.8% 0.0 mm
04:09 12.5 °C 7.7 °C 1015.5 hPa SO 7.8 km/h 11.3 km/h 72.3% 0.0 mm
04:14 12.5 °C 7.3 °C 1015.5 hPa SO 6.9 km/h 13 km/h 70.7% 0.0 mm
04:19 12.5 °C 7.1 °C 1015.5 hPa SO 7.5 km/h 13.7 km/h 69.5% 0.0 mm
04:24 12.5 °C 6.7 °C 1015.4 hPa OSO 8.4 km/h 14.5 km/h 67.8% 0.0 mm
04:29 12.4 °C 6.4 °C 1015.4 hPa SO 7.7 km/h 12.9 km/h 66.7% 0.0 mm
04:34 12.4 °C 6.2 °C 1015.4 hPa OSO 6.5 km/h 9.5 km/h 65.9% 0.0 mm
04:39 12.3 °C 5.9 °C 1015.3 hPa OSO 6.5 km/h 11.9 km/h 65% 0.0 mm
04:44 12.3 °C 5.7 °C 1015.3 hPa OSO 6.5 km/h 11.3 km/h 64.1% 0.0 mm
04:49 12.2 °C 5.6 °C 1015.3 hPa OSO 6.2 km/h 11.3 km/h 64% 0.0 mm
04:54 12.2 °C 5.6 °C 1015.2 hPa SSO 5.8 km/h 9.7 km/h 64% 0.0 mm
04:59 12.2 °C 5.6 °C 1015.2 hPa Sur 5.8 km/h 9.7 km/h 64% 0.0 mm
05:04 12.2 °C 5.8 °C 1015.2 hPa Sur 5.8 km/h 9.7 km/h 64.8% 0.0 mm
05:09 12.1 °C 5.8 °C 1015.2 hPa SSO 5.8 km/h 10 km/h 65.4% 0.0 mm
05:14 11.9 °C 5.9 °C 1015.2 hPa SSO 5.8 km/h 10.3 km/h 66.7% 0.0 mm
05:19 11.9 °C 6.1 °C 1015.2 hPa Sur 5.8 km/h 9.7 km/h 67.5% 0.0 mm
05:24 11.9 °C 6.3 °C 1015.1 hPa SSO 5.8 km/h 9.5 km/h 68.4% 0.0 mm
05:29 11.9 °C 6.4 °C 1015.1 hPa SO 5.4 km/h 9.7 km/h 69% 0.0 mm
05:34 11.9 °C 6.3 °C 1015.1 hPa OSO 4.7 km/h 9.7 km/h 68.6% 0.0 mm
05:39 11.9 °C 6.2 °C 1015.1 hPa OSO 4.7 km/h 9.7 km/h 68% 0.0 mm
05:44 11.8 °C 6.1 °C 1015.1 hPa Oeste 4.7 km/h 8 km/h 68% 0.0 mm
05:49 11.7 °C 5.9 °C 1015.1 hPa Oeste 5.1 km/h 9.5 km/h 68% 0.0 mm
05:54 11.4 °C 5.8 °C 1015.1 hPa OSO 5.8 km/h 9.7 km/h 68% 0.0 mm
05:59 11.3 °C 5.6 °C 1015.1 hPa Oeste 5.4 km/h 9.7 km/h 68% 0.0 mm
06:04 11.3 °C 5.6 °C 1015.3 hPa Oeste 5 km/h 8 km/h 68% 0.0 mm
06:09 11.2 °C 5.5 °C 1015.3 hPa Oeste 4.9 km/h 10 km/h 68% 0.0 mm
06:14 11.2 °C 5.5 °C 1015.3 hPa OSO 4.7 km/h 9.7 km/h 68% 0.0 mm
06:19 11.2 °C 5.5 °C 1015.3 hPa OSO 4.7 km/h 8 km/h 68% 0.0 mm
06:24 11.2 °C 5.5 °C 1015.3 hPa OSO 4.7 km/h 8 km/h 68% 0.0 mm
06:29 11.2 °C 5.5 °C 1015.3 hPa OSO 3.8 km/h 7.6 km/h 68% 0.0 mm
06:34 11.2 °C 5.3 °C 1015.5 hPa OSO 2.2 km/h 8 km/h 67.1% 0.0 mm
06:39 11.2 °C 5.2 °C 1015.5 hPa Oeste 3.1 km/h 9.5 km/h 66.5% 0.0 mm
06:44 11.2 °C 5.2 °C 1015.5 hPa Oeste 4.7 km/h 9.7 km/h 66.9% 0.0 mm
06:49 11.1 °C 5.4 °C 1015.6 hPa OSO 5 km/h 10 km/h 67.8% 0.0 mm
06:54 11.1 °C 5.4 °C 1015.6 hPa OSO 5.8 km/h 10 km/h 68% 0.0 mm
06:59 11.2 °C 5.5 °C 1015.6 hPa Oeste 5.8 km/h 9.7 km/h 68% 0.0 mm
07:04 11.2 °C 5.5 °C 1015.7 hPa OSO 5.8 km/h 9.7 km/h 68% 0.0 mm
07:09 11.3 °C 5.6 °C 1015.7 hPa OSO 5.5 km/h 9.7 km/h 68% 0.0 mm
07:14 11.3 °C 5.6 °C 1015.7 hPa OSO 5 km/h 9.7 km/h 68% 0.0 mm
07:19 11.3 °C 5.6 °C 1015.8 hPa Oeste 4.6 km/h 8 km/h 68% 0.0 mm
07:24 11.3 °C 5.5 °C 1015.8 hPa OSO 3.9 km/h 8.4 km/h 67.6% 0.0 mm
07:29 11.2 °C 5.3 °C 1015.8 hPa OSO 4.1 km/h 8 km/h 67% 0.0 mm
07:34 11.2 °C 5.3 °C 1016.0 hPa SO 4.7 km/h 8 km/h 67% 0.0 mm
07:39 11.2 °C 5.2 °C 1016.0 hPa SO 4.8 km/h 8 km/h 66.4% 0.0 mm
07:44 11.3 °C 5.2 °C 1016.0 hPa OSO 5 km/h 8 km/h 66% 0.0 mm
07:49 11.3 °C 5 °C 1016.2 hPa OSO 4.6 km/h 8.4 km/h 65.2% 0.0 mm
07:54 11.3 °C 4.9 °C 1016.2 hPa Oeste 3.9 km/h 8 km/h 65% 0.0 mm
07:59 11.2 °C 4.9 °C 1016.2 hPa Oeste 4.4 km/h 10.3 km/h 65% 0.0 mm
08:04 11.2 °C 4.8 °C 1016.3 hPa Oeste 5 km/h 11.1 km/h 65% 0.0 mm
08:09 11.1 °C 4.6 °C 1016.3 hPa Oeste 5.5 km/h 11.3 km/h 64.2% 0.0 mm
08:14 11.2 °C 4.6 °C 1016.3 hPa OSO 6.5 km/h 10 km/h 64% 0.0 mm
08:19 11.3 °C 4.6 °C 1016.6 hPa Oeste 6 km/h 11.1 km/h 63.6% 0.0 mm
08:24 11.4 °C 4.6 °C 1016.6 hPa Oeste 5 km/h 11.3 km/h 62.9% 0.0 mm
08:29 11.6 °C 4.6 °C 1016.6 hPa Oeste 4.9 km/h 9.7 km/h 62.2% 0.0 mm
08:34 11.7 °C 4.7 °C 1016.7 hPa OSO 4.7 km/h 8 km/h 61.9% 0.0 mm
08:39 11.9 °C 4.6 °C 1016.7 hPa OSO 4.7 km/h 8 km/h 61.2% 0.0 mm
08:44 12.2 °C 4.8 °C 1016.7 hPa OSO 4.7 km/h 8 km/h 61.1% 0.0 mm
08:49 12.3 °C 5.2 °C 1016.8 hPa SO 4.3 km/h 8 km/h 61.7% 0.0 mm
08:54 12.5 °C 5.1 °C 1016.8 hPa SO 3.9 km/h 8 km/h 60.8% 0.0 mm
08:59 12.7 °C 5 °C 1016.8 hPa SO 4.2 km/h 8 km/h 59.3% 0.0 mm
09:04 12.9 °C 4.6 °C 1016.9 hPa OSO 4.6 km/h 9.5 km/h 56.8% 0.0 mm
09:09 13.2 °C 4.6 °C 1016.9 hPa SO 4.7 km/h 9.7 km/h 55.7% 0.0 mm
09:14 13.5 °C 4.5 °C 1016.9 hPa SO 4.7 km/h 8 km/h 54.3% 0.0 mm
09:19 13.8 °C 4 °C 1017.0 hPa SO 4.7 km/h 11.9 km/h 51.7% 0.0 mm
09:24 14.1 °C 3.7 °C 1017.0 hPa SO 4.7 km/h 13.7 km/h 49.6% 0.0 mm
09:29 14.3 °C 3.5 °C 1017.0 hPa SO 5.4 km/h 14.5 km/h 48% 0.0 mm
09:34 14.7 °C 3.5 °C 1017.1 hPa SO 6.9 km/h 11.3 km/h 47% 0.0 mm
09:39 14.8 °C 3.4 °C 1017.1 hPa SO 6.9 km/h 11.3 km/h 46% 0.0 mm
09:44 15.1 °C 3.3 °C 1017.1 hPa SSO 6.9 km/h 14.8 km/h 45.1% 0.0 mm
09:49 15.3 °C 3.1 °C 1017.1 hPa SSO 7.1 km/h 14.5 km/h 44.1% 0.0 mm
09:54 15.5 °C 3 °C 1017.0 hPa SSO 7.6 km/h 12.9 km/h 43.3% 0.0 mm
09:59 15.7 °C 3 °C 1017.0 hPa SO 7.3 km/h 12.9 km/h 42.3% 0.0 mm
10:04 16 °C 3 °C 1017.1 hPa SSO 6.9 km/h 11.3 km/h 42% 0.0 mm
10:09 16.2 °C 3.1 °C 1017.1 hPa OSO 6.9 km/h 11.9 km/h 41.6% 0.0 mm
10:14 16.3 °C 3 °C 1017.1 hPa SSO 6.9 km/h 14.8 km/h 41% 0.0 mm
10:19 16.4 °C 3.1 °C 1017.2 hPa SO 7.2 km/h 14.5 km/h 41% 0.0 mm
10:24 16.7 °C 3.3 °C 1017.2 hPa SSO 7.6 km/h 16.7 km/h 41% 0.0 mm
10:29 16.8 °C 3.4 °C 1017.2 hPa Sur 8.2 km/h 16.1 km/h 41% 0.0 mm
10:34 16.8 °C 3.5 °C 1017.2 hPa SSO 9.5 km/h 15.6 km/h 41% 0.0 mm
10:39 17 °C 3.6 °C 1017.2 hPa SSO 9.2 km/h 16.1 km/h 40.9% 0.0 mm
10:44 17.2 °C 3.4 °C 1017.2 hPa SSO 8.7 km/h 13.7 km/h 40% 0.0 mm
10:49 17.3 °C 3.5 °C 1017.2 hPa SSO 8.6 km/h 14.5 km/h 40% 0.0 mm
10:54 17.5 °C 3.7 °C 1017.2 hPa SSO 8.4 km/h 14.8 km/h 39.9% 0.0 mm
10:59 17.8 °C 3.6 °C 1017.2 hPa SO 8.9 km/h 18.5 km/h 39% 0.0 mm
11:04 18.2 °C 3.6 °C 1017.2 hPa OSO 9.5 km/h 19.3 km/h 38% 0.0 mm
11:09 18.4 °C 3.5 °C 1017.1 hPa OSO 9.8 km/h 19.3 km/h 37.2% 0.0 mm
11:14 18.7 °C 3.7 °C 1017.1 hPa OSO 10.3 km/h 19.3 km/h 37% 0.0 mm
11:19 19 °C 3.7 °C 1017.1 hPa SO 9.6 km/h 18 km/h 36.2% 0.0 mm
11:24 19.4 °C 3.7 °C 1017.1 hPa SSO 8.4 km/h 19.3 km/h 35.4% 0.0 mm
11:29 19.7 °C 3.7 °C 1017.1 hPa SO 8.8 km/h 19.3 km/h 35% 0.0 mm
11:34 19.8 °C 3.7 °C 1017.1 hPa SO 9.5 km/h 16.1 km/h 34.6% 0.0 mm
11:39 20 °C 3.9 °C 1016.9 hPa Oeste 9.2 km/h 16.7 km/h 34.6% 0.0 mm
11:44 20.2 °C 3.8 °C 1016.9 hPa OSO 8.7 km/h 22.5 km/h 34% 0.0 mm
11:49 20.3 °C 3.7 °C 1017.0 hPa OSO 9.2 km/h 22.5 km/h 33.7% 0.0 mm
11:54 20.5 °C 3.6 °C 1017.0 hPa Oeste 10 km/h 16.1 km/h 33% 0.0 mm
11:59 20.6 °C 3.7 °C 1017.0 hPa OSO 9.4 km/h 18.3 km/h 32.8% 0.0 mm
12:04 20.8 °C 3 °C 1017.0 hPa OSO 8.7 km/h 22.5 km/h 31% 0.0 mm
12:09 20.9 °C 3 °C 1016.8 hPa Oeste 10.2 km/h 28.2 km/h 30.8% 0.0 mm
12:14 21.2 °C 2.3 °C 1016.8 hPa Oeste 13 km/h 29.6 km/h 28.9% 0.0 mm
12:19 21.3 °C 2.3 °C 1016.8 hPa ONO 14.2 km/h 29.1 km/h 28.4% 0.0 mm
12:24 21.4 °C 2.8 °C 1016.8 hPa ONO 16.4 km/h 29.6 km/h 29.5% 0.0 mm
12:29 21.4 °C 2.8 °C 1016.8 hPa Oeste 16.4 km/h 29.6 km/h 29.4% 0.0 mm
12:34 21.6 °C 2.6 °C 1016.8 hPa ONO 16.4 km/h 37 km/h 28.6% 0.0 mm
12:39 21.7 °C 1.8 °C 1016.7 hPa Oeste 17.1 km/h 37 km/h 26.9% 0.0 mm
12:44 21.8 °C 1.6 °C 1016.7 hPa ONO 18.4 km/h 38.9 km/h 26.3% 0.0 mm
12:49 21.9 °C 1.5 °C 1016.7 hPa ONO 19 km/h 38.6 km/h 26% 0.0 mm
12:54 22.1 °C 1.7 °C 1016.7 hPa ONO 20.1 km/h 33.8 km/h 26.1% 0.0 mm
12:59 22.2 °C 1.1 °C 1016.7 hPa ONO 19.3 km/h 35.2 km/h 24.8% 0.0 mm
13:04 22.1 °C 0.9 °C 1016.7 hPa ONO 18 km/h 35.9 km/h 24.5% 0.0 mm
13:09 22 °C 0.9 °C 1016.6 hPa ONO 18.2 km/h 35.4 km/h 24.8% 0.0 mm
13:14 22.3 °C 0.4 °C 1016.6 hPa NO 18.4 km/h 29.8 km/h 23.4% 0.0 mm
13:19 22.4 °C 0.8 °C 1016.6 hPa NO 17.2 km/h 30.6 km/h 24% 0.0 mm
13:24 22.7 °C 0.2 °C 1016.4 hPa NO 14.8 km/h 26.2 km/h 22.6% 0.0 mm
13:29 22.7 °C -0.3 °C 1016.4 hPa NO 14.4 km/h 25.7 km/h 21.8% 0.0 mm
13:34 22.5 °C -0.3 °C 1016.4 hPa ONO 13.7 km/h 33.3 km/h 22% 0.0 mm
13:39 22.7 °C -0.1 °C 1016.2 hPa ONO 13.8 km/h 33.8 km/h 22.1% 0.0 mm
13:44 22.7 °C 0.4 °C 1016.2 hPa NO 14 km/h 27.8 km/h 22.9% 0.0 mm
13:49 22.8 °C 0.5 °C 1016.2 hPa NO 14.3 km/h 27.4 km/h 23% 0.0 mm
13:54 22.7 °C 0.6 °C 1016.0 hPa NO 14.8 km/h 25.9 km/h 23.2% 0.0 mm
13:59 23 °C 0.7 °C 1016.0 hPa NO 13.2 km/h 25.9 km/h 23% 0.0 mm
14:04 23.2 °C 0.6 °C 1016.0 hPa NO 11.1 km/h 19.3 km/h 22.5% 0.0 mm
14:09 23.3 °C 0.4 °C 1015.9 hPa ONO 10.7 km/h 20.9 km/h 22% 0.0 mm
14:14 23.2 °C 0.8 °C 1015.9 hPa ONO 10 km/h 24.1 km/h 22.9% 0.0 mm
14:19 23.2 °C 0.4 °C 1015.9 hPa ONO 11.3 km/h 27.8 km/h 22.2% 0.0 mm
14:24 23.2 °C 0.8 °C 1015.7 hPa ONO 13.7 km/h 27.8 km/h 22.8% 0.0 mm
14:29 23.2 °C -0.2 °C 1015.7 hPa ONO 14.4 km/h 25.9 km/h 21.3% 0.0 mm
14:34 23.2 °C -0.3 °C 1015.7 hPa Oeste 15.6 km/h 24.1 km/h 21.1% 0.0 mm
14:39 23.4 °C -0.5 °C 1015.4 hPa ONO 12.5 km/h 18 km/h 20.6% 0.0 mm
14:44 23.6 °C -0.7 °C 1015.4 hPa ONO 6.9 km/h 29.6 km/h 20% 0.0 mm
14:49 23.7 °C -0.6 °C 1015.4 hPa NNO 8.1 km/h 29 km/h 20% 0.0 mm
14:54 23.8 °C -0.5 °C 1015.2 hPa SSE 10.3 km/h 22.2 km/h 20% 0.0 mm
14:59 24 °C -0.2 °C 1015.2 hPa OSO 9.6 km/h 26.2 km/h 20.3% 0.0 mm
15:04 24.2 °C -0.5 °C 1015.2 hPa Oeste 8.7 km/h 25.7 km/h 19.5% 0.0 mm
15:09 24.1 °C -0.7 °C 1015.1 hPa Oeste 9.9 km/h 24.1 km/h 19.4% 0.0 mm
15:14 24.1 °C -0.7 °C 1015.1 hPa Oeste 11.9 km/h 22.5 km/h 19.5% 0.0 mm
15:19 24.2 °C -1 °C 1015.1 hPa ONO 11.2 km/h 22.5 km/h 18.9% 0.0 mm
15:24 24.3 °C -1 °C 1015.0 hPa NNO 10 km/h 22.5 km/h 18.8% 0.0 mm
15:29 24.5 °C -0.9 °C 1015.0 hPa ONO 8.7 km/h 14.5 km/h 18.7% 0.0 mm
15:34 24.6 °C -1.3 °C 1015.0 hPa Oeste 6.5 km/h 30.9 km/h 18.1% 0.0 mm
15:39 24.4 °C -0.8 °C 1014.8 hPa Oeste 8.8 km/h 32.2 km/h 18.9% 0.0 mm
15:44 24.6 °C -1.7 °C 1014.8 hPa ONO 13 km/h 27.8 km/h 17.5% 0.0 mm
15:49 24.7 °C -2.2 °C 1014.8 hPa ONO 13.3 km/h 33.3 km/h 16.7% 0.0 mm
15:54 24.7 °C -2.3 °C 1014.6 hPa NO 13.7 km/h 33.8 km/h 16.7% 0.0 mm
15:59 24.7 °C -1.7 °C 1014.6 hPa ONO 14.8 km/h 29 km/h 17.4% 0.0 mm
16:04 24.7 °C -1.2 °C 1014.6 hPa NO 16.4 km/h 25.7 km/h 18% 0.0 mm
16:09 24.9 °C -1.1 °C 1014.5 hPa Oeste 14.2 km/h 19.3 km/h 18% 0.0 mm
16:14 24.8 °C -1.3 °C 1014.5 hPa NO 10 km/h 20.9 km/h 17.7% 0.0 mm
16:19 24.9 °C -1.8 °C 1014.5 hPa NO 9.5 km/h 20.9 km/h 17.1% 0.0 mm
16:24 25.2 °C -1.6 °C 1014.2 hPa ONO 8.7 km/h 16.7 km/h 17% 0.0 mm
16:29 25.5 °C -1.4 °C 1014.2 hPa NO 8.1 km/h 22.2 km/h 16.9% 0.0 mm
16:34 25.5 °C -1.7 °C 1014.2 hPa ONO 6.9 km/h 22.5 km/h 16.6% 0.0 mm
16:39 25.4 °C -1.8 °C 1014.2 hPa Oeste 8.2 km/h 19.3 km/h 16.6% 0.0 mm
16:44 25.7 °C -1.9 °C 1014.2 hPa NO 10.3 km/h 17.2 km/h 16.1% 0.0 mm
16:49 25.8 °C -2.1 °C 1014.2 hPa NNO 9.1 km/h 17.7 km/h 15.8% 0.0 mm
16:54 25.8 °C -2.6 °C 1014.0 hPa NO 6.9 km/h 15.6 km/h 15.3% 0.0 mm
16:59 25.9 °C -2.8 °C 1014.0 hPa OSO 7.2 km/h 23.3 km/h 15% 0.0 mm
17:04 26 °C -2.7 °C 1014.0 hPa SO 7.6 km/h 24.1 km/h 14.9% 0.0 mm
17:09 25.9 °C -2.7 °C 1014.0 hPa SO 8.8 km/h 24.1 km/h 15% 0.0 mm
17:14 25.7 °C -2.9 °C 1014.0 hPa ONO 11.1 km/h 16.1 km/h 15% 0.0 mm
17:19 25.8 °C -2.8 °C 1014.0 hPa ONO 9.6 km/h 18.5 km/h 15% 0.0 mm
17:24 25.8 °C -2.7 °C 1013.9 hPa NNO 6.9 km/h 19.3 km/h 15.2% 0.0 mm
17:29 25.9 °C -2.8 °C 1013.9 hPa NO 7.4 km/h 19.3 km/h 15% 0.0 mm
17:34 26.1 °C -2.6 °C 1014.0 hPa NNO 8.4 km/h 11.1 km/h 15% 0.0 mm
17:39 26.2 °C -2.4 °C 1014.0 hPa NNO 7.4 km/h 18.5 km/h 15.1% 0.0 mm
17:44 26.2 °C -2 °C 1014.0 hPa North 5.8 km/h 19.3 km/h 15.6% 0.0 mm
17:49 26.1 °C -0.4 °C 1014.0 hPa NNE 7.1 km/h 19.3 km/h 17.7% 0.0 mm
17:54 25.6 °C 1.7 °C 1013.7 hPa NNE 9.5 km/h 22.5 km/h 21.1% 0.0 mm
17:59 25.3 °C 1.5 °C 1013.7 hPa NE 10.6 km/h 22.5 km/h 21.2% 0.0 mm
18:04 25.2 °C 2.1 °C 1013.7 hPa NE 12.2 km/h 22.2 km/h 22.2% 0.0 mm
18:09 25.1 °C 2.4 °C 1013.6 hPa NE 12.9 km/h 22.5 km/h 22.8% 0.0 mm
18:14 25 °C 2.3 °C 1013.6 hPa NE 14 km/h 28.2 km/h 22.8% 0.0 mm
18:19 24.6 °C 2.7 °C 1013.8 hPa ESE 14.8 km/h 29.8 km/h 24% 0.0 mm
18:24 24.3 °C 2.5 °C 1013.8 hPa ESE 16.1 km/h 33.5 km/h 24% 0.0 mm
18:29 24.3 °C 2.5 °C 1013.8 hPa ESE 16.8 km/h 33.8 km/h 24.2% 0.0 mm
18:34 24.2 °C 2.5 °C 1013.9 hPa ESE 18 km/h 30.6 km/h 24.3% 0.0 mm
18:39 24 °C 2.7 °C 1013.9 hPa ESE 17.8 km/h 28.6 km/h 24.9% 0.0 mm
18:44 23.9 °C 2.7 °C 1013.9 hPa ESE 17.2 km/h 29 km/h 25% 0.0 mm
18:49 24 °C 2.7 °C 1013.9 hPa SE 16.8 km/h 27.4 km/h 25% 0.0 mm
18:54 24.2 °C 2.8 °C 1013.8 hPa ESE 16.1 km/h 27.4 km/h 24.9% 0.0 mm
18:59 24.1 °C 2.7 °C 1013.8 hPa SE 15.2 km/h 32.8 km/h 24.8% 0.0 mm
19:04 23.9 °C 2.4 °C 1013.9 hPa SE 14 km/h 33.8 km/h 24.5% 0.0 mm
19:09 23.8 °C 2.6 °C 1013.9 hPa SE 15.7 km/h 33.8 km/h 24.9% 0.0 mm
19:14 23.7 °C 2.5 °C 1013.9 hPa SE 19 km/h 29.6 km/h 25% 0.0 mm
19:19 23.7 °C 2.5 °C 1014.0 hPa SE 17.9 km/h 29.8 km/h 25% 0.0 mm
19:24 23.5 °C 2.4 °C 1014.0 hPa SE 16.1 km/h 30.6 km/h 25% 0.0 mm
19:29 23.4 °C 2.2 °C 1014.0 hPa SE 15.9 km/h 27.8 km/h 25% 0.0 mm
19:34 23.4 °C 2.3 °C 1014.2 hPa SE 15.6 km/h 27.4 km/h 25.2% 0.0 mm
19:39 23.2 °C 2.5 °C 1014.2 hPa SE 15 km/h 25.9 km/h 25.6% 0.0 mm
19:44 23.2 °C 2.6 °C 1014.2 hPa SE 14 km/h 22.5 km/h 26% 0.0 mm
19:49 23 °C 2.5 °C 1014.3 hPa SE 12.6 km/h 20.4 km/h 26% 0.0 mm
19:54 22.9 °C 2.4 °C 1014.3 hPa ESE 10 km/h 20.9 km/h 26% 0.0 mm
19:59 22.8 °C 1.9 °C 1014.3 hPa SE 10.1 km/h 28.6 km/h 25.4% 0.0 mm
20:04 22.5 °C 1.5 °C 1014.5 hPa SE 10.3 km/h 29 km/h 25% 0.0 mm
20:09 22.4 °C 1.4 °C 1014.5 hPa SE 11.2 km/h 27.4 km/h 25% 0.0 mm
20:14 22.3 °C 1.6 °C 1014.5 hPa SE 13 km/h 25.1 km/h 25.6% 0.0 mm
20:19 22.3 °C 1.4 °C 1014.7 hPa SE 11.4 km/h 25.9 km/h 25.2% 0.0 mm
20:24 22.2 °C 1.5 °C 1014.7 hPa SE 8.4 km/h 20.9 km/h 25.7% 0.0 mm
20:29 22 °C 1.6 °C 1014.7 hPa SE 8.4 km/h 14.5 km/h 26% 0.0 mm
20:34 21.9 °C 1.5 °C 1014.8 hPa SE 8.4 km/h 15.6 km/h 26% 0.0 mm
20:39 21.7 °C 1.5 °C 1014.8 hPa SE 7.8 km/h 16.1 km/h 26.3% 0.0 mm
20:44 21.6 °C 1.7 °C 1014.8 hPa ESE 6.9 km/h 13 km/h 27% 0.0 mm
20:49 21.3 °C 1.6 °C 1015.0 hPa SSE 6.9 km/h 13.7 km/h 27% 0.0 mm
20:54 21.3 °C 1.5 °C 1015.0 hPa SSE 6.9 km/h 17.2 km/h 27% 0.0 mm
20:59 21.2 °C 1.7 °C 1015.0 hPa SSE 7.2 km/h 17.7 km/h 27.6% 0.0 mm
21:04 21.1 °C 1.9 °C 1015.3 hPa NE 7.6 km/h 16.1 km/h 28% 0.0 mm
21:09 20.9 °C 5 °C 1015.3 hPa North 6.7 km/h 19 km/h 35.4% 0.0 mm
21:14 20.1 °C 7.1 °C 1015.3 hPa NNE 5 km/h 19.3 km/h 43% 0.0 mm
21:19 19.3 °C 7.9 °C 1015.6 hPa NNE 6.2 km/h 14.5 km/h 47.6% 0.0 mm
21:24 18.8 °C 8.2 °C 1015.6 hPa NNO 8.4 km/h 12.9 km/h 50% 0.0 mm
21:29 18.4 °C 8.4 °C 1015.6 hPa North 7.5 km/h 16.4 km/h 52.3% 0.0 mm
21:34 18 °C 8.5 °C 1015.8 hPa NNE 5.8 km/h 16.7 km/h 53.9% 0.0 mm
21:39 17.7 °C 8.7 °C 1015.8 hPa North 6.7 km/h 16.1 km/h 55.4% 0.0 mm
21:44 17.7 °C 8.8 °C 1015.8 hPa NNE 8.4 km/h 14.5 km/h 56.3% 0.0 mm
21:49 17.5 °C 9 °C 1016.1 hPa North 7.1 km/h 11.1 km/h 57.3% 0.0 mm
21:54 17.3 °C 9.2 °C 1016.1 hPa NNE 4.7 km/h 13.7 km/h 59% 0.0 mm
21:59 17.2 °C 9.6 °C 1016.1 hPa NNE 5.9 km/h 14.8 km/h 61.2% 0.0 mm
22:04 16.9 °C 10 °C 1016.4 hPa NNE 7.6 km/h 22.5 km/h 63.6% 0.0 mm
22:09 16.8 °C 10.2 °C 1016.4 hPa NNE 8.4 km/h 22.5 km/h 65.4% 0.0 mm
22:14 16.6 °C 10.3 °C 1016.4 hPa NE 10 km/h 20.9 km/h 66% 0.0 mm
22:19 16.6 °C 10.4 °C 1016.6 hPa NNO 8.8 km/h 16.7 km/h 67% 0.0 mm
22:24 16.4 °C 10.4 °C 1016.6 hPa North 6.5 km/h 16.7 km/h 67.3% 0.0 mm
22:29 16.3 °C 10.4 °C 1016.6 hPa NNE 6.6 km/h 16.7 km/h 68% 0.0 mm
22:34 16.2 °C 10.3 °C 1016.8 hPa North 6.9 km/h 11.1 km/h 68% 0.0 mm
22:39 16.2 °C 10.2 °C 1016.8 hPa NE 6.5 km/h 14 km/h 68% 0.0 mm
22:44 16.1 °C 10.2 °C 1016.8 hPa NE 5.8 km/h 14.8 km/h 68% 0.0 mm
22:49 16 °C 10.1 °C 1017.0 hPa NNE 6.2 km/h 14.5 km/h 68% 0.0 mm
22:54 15.9 °C 10.2 °C 1017.0 hPa NNE 6.9 km/h 11.3 km/h 68.8% 0.0 mm
22:59 15.8 °C 10.1 °C 1017.0 hPa NNE 6.7 km/h 11.3 km/h 69.2% 0.0 mm
23:04 15.7 °C 10.2 °C 1017.0 hPa NNE 6.5 km/h 9.7 km/h 70% 0.0 mm
23:09 15.7 °C 10.3 °C 1017.0 hPa NNE 6 km/h 9.7 km/h 70.6% 0.0 mm
23:14 15.6 °C 10.4 °C 1017.0 hPa NNO 5 km/h 9.3 km/h 71% 0.0 mm
23:19 15.6 °C 10.3 °C 1017.0 hPa NNO 4.6 km/h 9.7 km/h 71% 0.0 mm
23:24 15.6 °C 10.4 °C 1017.0 hPa NNO 3.9 km/h 8 km/h 71.5% 0.0 mm
23:29 15.5 °C 10.4 °C 1017.0 hPa NNO 3.6 km/h 8 km/h 72% 0.0 mm
23:34 15.4 °C 10.4 °C 1017.1 hPa NNO 3.2 km/h 5.8 km/h 72% 0.0 mm
23:39 15.4 °C 10.4 °C 1017.1 hPa NNO 2.9 km/h 6.4 km/h 72% 0.0 mm
23:44 15.4 °C 10.4 °C 1017.1 hPa NNO 2.2 km/h 4.8 km/h 72% 0.0 mm
23:49 15.3 °C 10.4 °C 1017.1 hPa NNO 2.2 km/h 4.8 km/h 72.3% 0.0 mm
23:54 15.3 °C 10.5 °C 1017.1 hPa NNO 2.2 km/h 5 km/h 73% 0.0 mm
23:59 15.3 °C 10.5 °C 1017.1 hPa NNO 2.2 km/h 7.4 km/h 73% 0.0 mm
Murcia-Puente Tocinos, España
Compliments of Weather Underground - 3 mb

La estación de MeteoMurcia.com, publica sus datos en los siguientes proyectos:

Weather Underground PWS IMURCIAP2 Meteoclimatic www.awekas.at

W3Counter
Web Analytics